createdAt,value
2019-03-19T00:00:11.167Z,0.44
2019-03-19T00:02:38.220Z,0.47
2019-03-19T00:05:05.389Z,0.46
2019-03-19T00:07:32.451Z,0.45
2019-03-19T00:09:59.505Z,0.49
2019-03-19T00:12:26.568Z,0.51
2019-03-19T00:14:53.634Z,0.48
2019-03-19T00:17:20.691Z,0.47
2019-03-19T00:19:47.749Z,0.48
2019-03-19T00:22:14.813Z,0.45
2019-03-19T00:24:41.870Z,0.43
2019-03-19T00:27:08.924Z,0.46
2019-03-19T00:29:36.004Z,0.40
2019-03-19T00:32:03.050Z,0.38
2019-03-19T00:34:30.158Z,0.42
2019-03-19T00:36:57.215Z,0.49
2019-03-19T00:39:24.267Z,0.44
2019-03-19T00:41:52.241Z,0.44
2019-03-19T00:44:19.498Z,0.45
2019-03-19T00:46:46.552Z,0.47
2019-03-19T00:49:13.633Z,0.51
2019-03-19T00:51:40.683Z,0.62
2019-03-19T00:54:07.750Z,0.55
2019-03-19T00:56:34.806Z,0.47
2019-03-19T00:59:01.879Z,0.49
2019-03-19T01:01:28.945Z,0.51
2019-03-19T01:03:56.038Z,0.52
2019-03-19T01:06:23.091Z,0.52
2019-03-19T01:08:50.151Z,0.57
2019-03-19T01:11:17.203Z,0.55
2019-03-19T01:13:44.265Z,0.50
2019-03-19T01:16:11.316Z,0.53
2019-03-19T01:18:38.390Z,0.55
2019-03-19T01:21:05.440Z,0.56
2019-03-19T01:23:32.490Z,0.53
2019-03-19T01:25:59.554Z,0.55
2019-03-19T01:28:26.635Z,0.57
2019-03-19T01:30:53.688Z,0.57
2019-03-19T01:33:20.754Z,0.57
2019-03-19T01:35:47.820Z,0.55
2019-03-19T01:38:14.912Z,0.51
2019-03-19T01:40:41.958Z,0.53
2019-03-19T01:43:09.017Z,0.61
2019-03-19T01:45:36.099Z,0.61
2019-03-19T01:48:03.568Z,0.60
2019-03-19T01:50:30.641Z,0.61
2019-03-19T01:52:57.705Z,0.62
2019-03-19T01:55:25.703Z,0.67
2019-03-19T01:57:52.930Z,0.64
2019-03-19T02:00:19.992Z,0.59
2019-03-19T02:02:47.048Z,0.61
2019-03-19T02:05:14.123Z,0.60
2019-03-19T02:07:41.296Z,0.63
2019-03-19T02:10:08.872Z,0.58
2019-03-19T02:12:35.967Z,0.61
2019-03-19T02:15:03.147Z,0.63
2019-03-19T02:17:30.212Z,0.67
2019-03-19T02:19:57.334Z,0.67
2019-03-19T02:22:24.385Z,0.69
2019-03-19T02:24:51.477Z,0.67
2019-03-19T02:27:18.527Z,0.67
2019-03-19T02:29:45.604Z,0.64
2019-03-19T02:32:12.721Z,0.63
2019-03-19T02:34:39.769Z,0.65
2019-03-19T02:37:06.834Z,0.68
2019-03-19T02:39:33.896Z,0.73
2019-03-19T02:42:00.960Z,0.70
2019-03-19T02:44:28.031Z,0.74
2019-03-19T02:46:55.090Z,0.75
2019-03-19T02:49:22.147Z,0.73
2019-03-19T02:51:49.221Z,0.78
2019-03-19T02:54:16.296Z,0.75
2019-03-19T02:56:43.344Z,0.76
2019-03-19T02:59:10.413Z,0.74
2019-03-19T03:01:37.479Z,0.72
2019-03-19T03:04:04.534Z,0.71
2019-03-19T03:06:31.593Z,0.75
2019-03-19T03:08:58.654Z,0.76
2019-03-19T03:11:25.694Z,0.75
2019-03-19T03:13:52.768Z,0.76
2019-03-19T03:16:20.006Z,0.76
2019-03-19T03:18:47.184Z,0.76
2019-03-19T03:21:14.271Z,0.81
2019-03-19T03:23:41.353Z,0.71
2019-03-19T03:26:08.418Z,0.69
2019-03-19T03:28:35.503Z,0.64
2019-03-19T03:31:02.553Z,0.65
2019-03-19T03:33:29.601Z,0.67
2019-03-19T03:35:56.651Z,0.63
2019-03-19T03:38:23.725Z,0.65
2019-03-19T03:40:50.807Z,0.66
2019-03-19T03:43:17.874Z,0.69
2019-03-19T03:45:44.947Z,0.65
2019-03-19T03:48:12.006Z,0.60
2019-03-19T03:50:39.065Z,0.65
2019-03-19T03:53:06.131Z,0.64
2019-03-19T03:55:33.193Z,0.65
2019-03-19T03:58:00.253Z,0.67
2019-03-19T04:00:27.300Z,0.69
2019-03-19T04:02:54.353Z,0.67
2019-03-19T04:05:21.417Z,0.70
2019-03-19T04:07:48.505Z,0.76
2019-03-19T04:10:15.540Z,0.76
2019-03-19T04:12:42.601Z,0.79
2019-03-19T04:15:10.239Z,0.78
2019-03-19T04:17:37.289Z,0.76
2019-03-19T04:20:04.759Z,0.78
2019-03-19T04:22:31.823Z,0.83
2019-03-19T04:24:58.883Z,0.84
2019-03-19T04:27:25.959Z,0.88
2019-03-19T04:29:53.025Z,0.89
2019-03-19T04:32:20.088Z,0.88
2019-03-19T04:34:47.139Z,0.90
2019-03-19T04:37:14.216Z,0.92
2019-03-19T04:39:41.279Z,0.91
2019-03-19T04:42:08.333Z,0.91
2019-03-19T04:44:35.402Z,0.91
2019-03-19T04:47:02.563Z,0.87
2019-03-19T04:49:29.623Z,0.94
2019-03-19T04:51:56.688Z,0.88
2019-03-19T04:54:23.784Z,0.80
2019-03-19T04:56:50.859Z,0.80
2019-03-19T04:59:17.926Z,0.80
2019-03-19T05:01:44.979Z,0.78
2019-03-19T05:04:12.028Z,0.78
2019-03-19T05:06:39.110Z,0.76
2019-03-19T05:09:07.142Z,0.78
2019-03-19T05:11:34.195Z,0.80
2019-03-19T05:14:01.249Z,0.82
2019-03-19T05:16:28.303Z,0.84
2019-03-19T05:18:55.366Z,0.82
2019-03-19T05:21:22.433Z,0.80
2019-03-19T05:23:49.503Z,0.80
2019-03-19T05:26:16.685Z,0.74
2019-03-19T05:28:43.747Z,0.70
2019-03-19T05:31:10.799Z,0.75
2019-03-19T05:33:37.891Z,0.66
2019-03-19T05:36:04.989Z,0.64
2019-03-19T05:38:32.023Z,0.61
2019-03-19T05:40:59.087Z,0.64
2019-03-19T05:43:26.149Z,0.65
2019-03-19T05:45:53.206Z,0.62
2019-03-19T05:48:20.284Z,0.65
2019-03-19T05:50:47.345Z,0.61
2019-03-19T05:53:14.437Z,0.64
2019-03-19T05:55:41.496Z,0.64
2019-03-19T05:58:08.593Z,0.61
2019-03-19T06:00:36.061Z,0.64
2019-03-19T06:03:03.119Z,0.59
2019-03-19T06:05:30.205Z,0.54
2019-03-19T06:07:57.288Z,0.45
2019-03-19T06:10:26.019Z,0.47
2019-03-19T06:12:53.381Z,0.45
2019-03-19T06:15:20.465Z,0.49
2019-03-19T06:17:47.530Z,0.47
2019-03-19T06:20:14.608Z,0.47
2019-03-19T06:22:41.682Z,0.52
2019-03-19T06:25:08.942Z,0.46
2019-03-19T06:27:36.020Z,0.45
2019-03-19T06:30:04.553Z,0.53
2019-03-19T06:32:31.619Z,0.42
2019-03-19T06:34:58.716Z,0.44
2019-03-19T06:37:25.795Z,0.38
2019-03-19T06:39:52.878Z,0.35
2019-03-19T06:42:19.987Z,0.41
2019-03-19T06:44:47.057Z,0.40
2019-03-19T06:47:14.119Z,0.39
2019-03-19T06:49:41.193Z,0.41
2019-03-19T06:52:08.267Z,0.42
2019-03-19T06:54:35.334Z,0.44
2019-03-19T06:57:02.429Z,0.46
2019-03-19T06:59:29.474Z,0.49
2019-03-19T07:01:56.545Z,0.53
2019-03-19T07:04:23.609Z,0.41
2019-03-19T07:06:50.731Z,0.38
2019-03-19T07:09:17.796Z,0.49
2019-03-19T07:11:44.880Z,0.37
2019-03-19T07:14:11.949Z,0.38
2019-03-19T07:16:39.013Z,0.41
2019-03-19T07:19:06.075Z,0.47
2019-03-19T07:21:33.141Z,0.45
2019-03-19T07:24:00.210Z,0.47
2019-03-19T07:26:27.275Z,0.50
2019-03-19T07:28:54.346Z,0.52
2019-03-19T07:31:30.392Z,0.52
2019-03-19T07:33:50.403Z,0.51
2019-03-19T07:36:17.471Z,0.47
2019-03-19T07:38:45.454Z,0.50
2019-03-19T07:41:12.554Z,0.55
2019-03-19T07:43:39.627Z,0.60
2019-03-19T07:46:06.660Z,0.64
2019-03-19T07:48:33.884Z,0.65
2019-03-19T07:51:00.959Z,0.66
2019-03-19T07:53:28.247Z,0.73
2019-03-19T07:55:55.321Z,0.76
2019-03-19T07:58:32.837Z,0.83
2019-03-19T08:00:51.369Z,0.77
2019-03-19T08:03:18.444Z,0.78
2019-03-19T08:05:45.507Z,0.82
2019-03-19T08:08:12.574Z,0.86
2019-03-19T08:10:39.647Z,0.89
2019-03-19T08:13:06.714Z,0.90
2019-03-19T08:15:33.778Z,0.93
2019-03-19T08:18:00.847Z,0.95
2019-03-19T08:20:27.926Z,0.98
2019-03-19T08:22:54.983Z,1.03
2019-03-19T08:25:22.064Z,1.14
2019-03-19T08:27:49.166Z,1.05
2019-03-19T08:30:16.276Z,1.04
2019-03-19T08:32:43.352Z,1.08
2019-03-19T08:35:10.400Z,1.19
2019-03-19T08:37:37.471Z,1.27
2019-03-19T08:40:05.333Z,1.38
2019-03-19T08:42:32.405Z,1.49
2019-03-19T08:44:59.504Z,1.60
2019-03-19T08:47:26.558Z,1.55
2019-03-19T08:49:53.711Z,1.50
2019-03-19T08:52:20.793Z,1.50
2019-03-19T08:54:47.862Z,1.39
2019-03-19T08:57:14.929Z,1.40
2019-03-19T08:59:42.001Z,1.77
2019-03-19T09:02:09.149Z,2.25
2019-03-19T09:04:36.220Z,2.64
2019-03-19T09:07:03.434Z,2.84
2019-03-19T09:09:30.502Z,2.96
2019-03-19T09:11:57.576Z,3.01
2019-03-19T09:14:24.660Z,2.79
2019-03-19T09:16:51.738Z,2.55
2019-03-19T09:19:18.865Z,2.44
2019-03-19T09:21:45.933Z,2.28
2019-03-19T09:24:13.014Z,2.27
2019-03-19T09:26:40.077Z,2.51
2019-03-19T09:29:16.307Z,2.36
2019-03-19T09:31:53.200Z,2.32
2019-03-19T09:34:20.447Z,2.57
2019-03-19T09:36:56.986Z,2.82
2019-03-19T09:39:16.503Z,3.06
2019-03-19T09:41:43.564Z,3.31
2019-03-19T09:44:10.625Z,3.12
2019-03-19T09:46:37.740Z,2.84
2019-03-19T09:49:04.804Z,2.91
2019-03-19T09:51:31.891Z,3.03
2019-03-19T09:53:58.976Z,3.14
2019-03-19T09:56:26.048Z,3.20
2019-03-19T09:58:53.107Z,3.29
2019-03-19T10:01:20.171Z,3.31
2019-03-19T10:03:47.245Z,3.40
2019-03-19T10:06:14.666Z,3.54
2019-03-19T10:08:41.920Z,3.74
2019-03-19T10:11:08.999Z,3.89
2019-03-19T10:13:36.090Z,4.04
2019-03-19T10:16:03.247Z,3.94
2019-03-19T10:18:30.353Z,3.52
2019-03-19T10:20:57.427Z,3.55
2019-03-19T10:23:24.524Z,3.48
2019-03-19T10:25:51.574Z,3.30
2019-03-19T10:28:18.673Z,3.48
2019-03-19T10:30:45.758Z,3.79
2019-03-19T10:33:12.864Z,3.88
2019-03-19T10:35:39.919Z,3.96
2019-03-19T10:38:06.984Z,4.10
2019-03-19T10:40:34.069Z,4.20
2019-03-19T10:43:01.131Z,4.38
2019-03-19T10:45:28.224Z,4.57
2019-03-19T10:47:55.267Z,4.70
2019-03-19T10:50:22.379Z,4.73
2019-03-19T10:52:49.479Z,4.77
2019-03-19T10:55:16.562Z,4.85
2019-03-19T10:57:43.631Z,4.92
2019-03-19T11:00:14.064Z,4.94
2019-03-19T11:02:41.193Z,4.90
2019-03-19T11:05:09.101Z,4.78
2019-03-19T11:07:36.159Z,4.66
2019-03-19T11:10:04.039Z,4.41
2019-03-19T11:12:31.139Z,4.52
2019-03-19T11:14:58.289Z,4.47
2019-03-19T11:17:25.419Z,4.34
2019-03-19T11:19:52.555Z,4.17
2019-03-19T11:22:19.628Z,3.94
2019-03-19T11:24:46.684Z,3.95
2019-03-19T11:27:13.751Z,4.09
2019-03-19T11:29:40.827Z,4.24
2019-03-19T11:32:07.881Z,4.40
2019-03-19T11:34:34.946Z,4.60
2019-03-19T11:37:02.021Z,4.67
2019-03-19T11:39:29.087Z,4.48
2019-03-19T11:41:56.165Z,4.48
2019-03-19T11:44:23.229Z,4.44
2019-03-19T11:46:50.546Z,4.41
2019-03-19T11:49:17.611Z,4.76
2019-03-19T11:51:44.669Z,4.49
2019-03-19T11:54:11.742Z,4.51
2019-03-19T11:56:38.816Z,4.28
2019-03-19T11:59:05.875Z,4.24
2019-03-19T12:01:32.934Z,4.26
2019-03-19T12:04:00.005Z,4.45
2019-03-19T12:06:27.074Z,4.51
2019-03-19T12:08:54.253Z,4.53
2019-03-19T12:11:21.359Z,4.51
2019-03-19T12:13:48.427Z,4.46
2019-03-19T12:16:15.498Z,4.39
2019-03-19T12:18:42.568Z,4.44
2019-03-19T12:21:09.683Z,4.55
2019-03-19T12:23:36.760Z,4.61
2019-03-19T12:26:03.823Z,4.52
2019-03-19T12:28:39.231Z,4.39
2019-03-19T12:30:59.889Z,4.27
2019-03-19T12:33:26.951Z,4.30
2019-03-19T12:35:54.022Z,4.32
2019-03-19T12:38:21.123Z,4.25
2019-03-19T12:40:48.216Z,4.26
2019-03-19T12:43:15.291Z,4.33
2019-03-19T12:45:42.411Z,4.40
2019-03-19T12:48:09.473Z,4.46
2019-03-19T12:50:36.538Z,4.53
2019-03-19T12:53:03.723Z,4.47
2019-03-19T12:55:30.796Z,4.45
2019-03-19T12:57:57.860Z,4.56
2019-03-19T13:00:55.473Z,4.54
2019-03-19T13:02:53.903Z,4.50
2019-03-19T13:05:22.508Z,4.42
2019-03-19T13:07:49.913Z,4.26
2019-03-19T13:10:17.067Z,4.23
2019-03-19T13:12:44.146Z,4.34
2019-03-19T13:15:11.692Z,4.37
2019-03-19T13:17:38.783Z,4.45
2019-03-19T13:20:07.216Z,4.44
2019-03-19T13:22:34.297Z,4.49
2019-03-19T13:25:01.379Z,4.55
2019-03-19T13:27:28.416Z,4.53
2019-03-19T13:29:55.479Z,4.61
2019-03-19T13:32:22.546Z,4.68
2019-03-19T13:34:49.664Z,4.68
2019-03-19T13:37:16.755Z,4.65
2019-03-19T13:39:43.879Z,4.61
2019-03-19T13:42:10.946Z,4.58
2019-03-19T13:44:38.022Z,4.55
2019-03-19T13:47:05.095Z,4.64
2019-03-19T13:49:32.170Z,4.67
2019-03-19T13:51:59.249Z,4.66
2019-03-19T13:54:26.294Z,4.61
2019-03-19T13:56:53.361Z,4.63
2019-03-19T13:59:20.416Z,4.60
2019-03-19T14:01:47.474Z,4.60
2019-03-19T14:04:14.543Z,4.56
2019-03-19T14:06:41.646Z,4.68
2019-03-19T14:09:09.043Z,4.65
2019-03-19T14:11:36.110Z,4.61
2019-03-19T14:14:03.168Z,4.69
2019-03-19T14:16:30.230Z,4.77
2019-03-19T14:18:57.328Z,4.74
2019-03-19T14:21:24.377Z,4.75
2019-03-19T14:23:51.444Z,4.81
2019-03-19T14:26:18.529Z,4.86
2019-03-19T14:28:45.590Z,4.83
2019-03-19T14:31:12.642Z,4.80
2019-03-19T14:33:39.727Z,4.85
2019-03-19T14:36:10.438Z,4.86
2019-03-19T14:38:46.723Z,4.88
2019-03-19T14:41:06.721Z,4.95
2019-03-19T14:43:33.778Z,5.03
2019-03-19T14:46:00.847Z,5.15
2019-03-19T14:48:27.945Z,5.22
2019-03-19T14:50:55.116Z,5.20
2019-03-19T14:53:22.229Z,5.19
2019-03-19T14:55:49.312Z,5.30
2019-03-19T14:58:16.400Z,5.29
2019-03-19T15:00:43.484Z,5.25
2019-03-19T15:03:10.575Z,5.22
2019-03-19T15:05:37.632Z,5.17
2019-03-19T15:08:04.696Z,5.21
2019-03-19T15:10:31.788Z,5.18
2019-03-19T15:12:58.852Z,5.15
2019-03-19T15:15:25.925Z,5.18
2019-03-19T15:17:52.991Z,5.23
2019-03-19T15:20:20.066Z,5.36
2019-03-19T15:22:47.129Z,5.31
2019-03-19T15:25:14.283Z,5.28
2019-03-19T15:27:41.379Z,5.18
2019-03-19T15:30:08.660Z,5.14
2019-03-19T15:32:35.762Z,5.12
2019-03-19T15:35:03.078Z,5.15
2019-03-19T15:37:30.184Z,5.24
2019-03-19T15:39:57.245Z,5.26
2019-03-19T15:42:24.405Z,5.30
2019-03-19T15:44:51.913Z,5.38
2019-03-19T15:47:19.083Z,5.43
2019-03-19T15:49:46.218Z,5.48
2019-03-19T15:52:13.359Z,5.52
2019-03-19T15:54:40.429Z,5.43
2019-03-19T15:57:07.615Z,5.32
2019-03-19T15:59:34.695Z,5.29
2019-03-19T16:02:01.779Z,5.33
2019-03-19T16:04:28.850Z,5.35
2019-03-19T16:06:55.924Z,5.36
2019-03-19T16:09:23.005Z,5.29
2019-03-19T16:11:50.072Z,5.24
2019-03-19T16:14:17.128Z,5.19
2019-03-19T16:16:44.199Z,5.19
2019-03-19T16:19:11.255Z,5.15
2019-03-19T16:21:38.338Z,5.17
2019-03-19T16:24:05.406Z,5.17
2019-03-19T16:26:32.469Z,5.19
2019-03-19T16:28:59.544Z,5.14
2019-03-19T16:31:26.598Z,5.06
2019-03-19T16:33:53.676Z,5.01
2019-03-19T16:36:20.738Z,4.93
2019-03-19T16:38:47.814Z,4.85
2019-03-19T16:41:14.902Z,4.85
2019-03-19T16:43:41.956Z,4.79
2019-03-19T16:46:09.062Z,4.75
2019-03-19T16:48:36.126Z,4.64
2019-03-19T16:51:03.207Z,4.57
2019-03-19T16:53:30.271Z,4.50
2019-03-19T16:55:57.373Z,4.44
2019-03-19T16:58:24.449Z,4.40
2019-03-19T17:00:51.532Z,4.33
2019-03-19T17:03:18.616Z,4.26
2019-03-19T17:05:45.677Z,4.20
2019-03-19T17:08:12.789Z,4.13
2019-03-19T17:10:39.854Z,4.07
2019-03-19T17:13:06.950Z,4.01
2019-03-19T17:15:34.008Z,3.97
2019-03-19T17:18:01.067Z,3.88
2019-03-19T17:20:28.124Z,3.80
2019-03-19T17:22:55.185Z,3.73
2019-03-19T17:25:22.291Z,3.65
2019-03-19T17:27:49.435Z,3.58
2019-03-19T17:30:21.346Z,3.51
2019-03-19T17:32:48.488Z,3.44
2019-03-19T17:35:15.542Z,3.38
2019-03-19T17:37:42.613Z,3.31
2019-03-19T17:40:09.791Z,3.24
2019-03-19T17:42:36.893Z,3.19
2019-03-19T17:45:04.771Z,3.14
2019-03-19T17:47:31.864Z,3.08
2019-03-19T17:49:58.944Z,3.03
2019-03-19T17:52:26.008Z,2.96
2019-03-19T17:54:53.070Z,2.93
2019-03-19T17:57:21.218Z,2.89
2019-03-19T17:59:48.291Z,2.84
2019-03-19T18:02:23.914Z,2.81
2019-03-19T18:04:47.339Z,2.76
2019-03-19T18:07:14.492Z,2.70
2019-03-19T18:09:41.671Z,2.65
2019-03-19T18:12:08.749Z,2.61
2019-03-19T18:14:35.806Z,2.56
2019-03-19T18:17:02.927Z,2.53
2019-03-19T18:19:29.995Z,2.48
2019-03-19T18:21:57.107Z,2.44
2019-03-19T18:24:24.209Z,2.40
2019-03-19T18:26:51.296Z,2.36
2019-03-19T18:29:18.369Z,2.34
2019-03-19T18:31:45.429Z,2.31
2019-03-19T18:34:12.618Z,2.27
2019-03-19T18:36:39.744Z,2.22
2019-03-19T18:39:07.399Z,2.17
2019-03-19T18:41:34.460Z,2.14
2019-03-19T18:44:01.569Z,2.13
2019-03-19T18:46:28.707Z,2.10
2019-03-19T18:48:55.798Z,2.04
2019-03-19T18:51:22.879Z,2.00
2019-03-19T18:53:50.019Z,1.95
2019-03-19T18:56:17.093Z,1.89
2019-03-19T18:58:44.209Z,1.86
2019-03-19T19:01:11.290Z,1.82
2019-03-19T19:03:40.347Z,1.77
2019-03-19T19:06:07.640Z,1.74
2019-03-19T19:08:35.119Z,1.71
2019-03-19T19:11:03.688Z,1.70
2019-03-19T19:13:30.940Z,1.67
2019-03-19T19:15:58.169Z,1.64
2019-03-19T19:18:25.181Z,1.59
2019-03-19T19:20:52.327Z,1.55
2019-03-19T19:23:19.468Z,1.51
2019-03-19T19:25:46.552Z,1.50
2019-03-19T19:28:14.052Z,1.47
2019-03-19T19:30:41.278Z,1.41
2019-03-19T19:33:08.387Z,1.37
2019-03-19T19:35:35.508Z,1.32
2019-03-19T19:38:03.634Z,1.30
2019-03-19T19:40:30.890Z,1.25
2019-03-19T19:42:58.048Z,1.21
2019-03-19T19:45:25.206Z,1.14
2019-03-19T19:47:52.305Z,1.10
2019-03-19T19:50:19.457Z,1.06
2019-03-19T19:52:46.664Z,1.03
2019-03-19T19:55:14.177Z,1.00
2019-03-19T19:57:41.305Z,0.97
2019-03-19T20:00:11.222Z,0.94
2019-03-19T20:02:38.343Z,0.96
2019-03-19T20:05:05.544Z,0.94
2019-03-19T20:07:32.849Z,0.91
2019-03-19T20:09:59.969Z,0.86
2019-03-19T20:12:27.040Z,0.82
2019-03-19T20:14:54.151Z,0.78
2019-03-19T20:17:21.236Z,0.76
2019-03-19T20:19:48.367Z,0.75
2019-03-19T20:22:15.603Z,0.73
2019-03-19T20:24:42.774Z,0.71
2019-03-19T20:27:09.856Z,0.67
2019-03-19T20:29:37.211Z,0.62
2019-03-19T20:32:04.419Z,0.58
2019-03-19T20:34:31.830Z,0.55
2019-03-19T20:36:58.894Z,0.52
2019-03-19T20:39:26.008Z,0.50
2019-03-19T20:41:53.096Z,0.47
2019-03-19T20:44:20.200Z,0.44
2019-03-19T20:46:47.309Z,0.40
2019-03-19T20:49:14.509Z,0.38
2019-03-19T20:51:41.791Z,0.34
2019-03-19T20:54:08.869Z,0.32
2019-03-19T20:56:36.445Z,0.31
2019-03-19T20:59:03.503Z,0.28
2019-03-19T21:01:30.600Z,0.27
2019-03-19T21:04:05.498Z,0.24
2019-03-19T21:06:32.799Z,0.22
2019-03-19T21:08:59.809Z,0.20
2019-03-19T21:11:26.918Z,0.17
2019-03-19T21:13:54.003Z,0.18
2019-03-19T21:16:21.095Z,0.17
2019-03-19T21:18:48.182Z,0.14
2019-03-19T21:21:15.261Z,0.15
2019-03-19T21:23:42.343Z,0.14
2019-03-19T21:26:09.418Z,0.12
2019-03-19T21:28:36.500Z,0.13
2019-03-19T21:31:03.592Z,0.12
2019-03-19T21:33:30.672Z,0.09
2019-03-19T21:35:57.755Z,0.08
2019-03-19T21:38:24.817Z,0.06
2019-03-19T21:40:51.894Z,0.04
2019-03-19T21:43:18.981Z,0.04
2019-03-19T21:45:46.026Z,0.02
2019-03-19T21:48:13.121Z,-0.01
2019-03-19T21:50:40.212Z,-0.01
2019-03-19T21:53:07.272Z,-0.05
2019-03-19T21:55:34.368Z,-0.08
2019-03-19T21:58:01.547Z,-0.10
2019-03-19T22:00:28.618Z,-0.12
2019-03-19T22:02:55.719Z,-0.14
2019-03-19T22:05:22.855Z,-0.18
2019-03-19T22:07:49.925Z,-0.20
2019-03-19T22:10:16.988Z,-0.21
2019-03-19T22:12:44.064Z,-0.21
2019-03-19T22:15:13.612Z,-0.21
2019-03-19T22:17:40.775Z,-0.21
2019-03-19T22:20:08.066Z,-0.23
2019-03-19T22:22:35.148Z,-0.24
2019-03-19T22:25:02.259Z,-0.27
2019-03-19T22:27:29.327Z,-0.29
2019-03-19T22:29:56.468Z,-0.31
2019-03-19T22:32:23.535Z,-0.34
2019-03-19T22:34:50.605Z,-0.38
2019-03-19T22:37:17.678Z,-0.44
2019-03-19T22:39:44.816Z,-0.49
2019-03-19T22:42:11.884Z,-0.51
2019-03-19T22:44:38.975Z,-0.54
2019-03-19T22:47:06.047Z,-0.57
2019-03-19T22:49:34.607Z,-0.60
2019-03-19T22:52:04.084Z,-0.64
2019-03-19T22:54:31.147Z,-0.66
2019-03-19T22:56:58.216Z,-0.66
2019-03-19T22:59:25.289Z,-0.64
2019-03-19T23:01:52.386Z,-0.62
2019-03-19T23:04:27.101Z,-0.60
2019-03-19T23:06:48.397Z,-0.58
2019-03-19T23:09:15.463Z,-0.56
2019-03-19T23:11:42.567Z,-0.55
2019-03-19T23:14:09.617Z,-0.54
2019-03-19T23:16:36.710Z,-0.54
2019-03-19T23:19:05.631Z,-0.54
2019-03-19T23:21:32.679Z,-0.51
2019-03-19T23:23:59.747Z,-0.53
2019-03-19T23:26:26.847Z,-0.53
2019-03-19T23:28:53.906Z,-0.56
2019-03-19T23:31:20.978Z,-0.59
2019-03-19T23:33:48.044Z,-0.60
2019-03-19T23:36:15.127Z,-0.64
2019-03-19T23:38:42.195Z,-0.65
2019-03-19T23:41:09.248Z,-0.66
2019-03-19T23:43:36.308Z,-0.66
2019-03-19T23:46:03.376Z,-0.69
2019-03-19T23:48:30.447Z,-0.71
2019-03-19T23:50:57.508Z,-0.72
2019-03-19T23:53:24.592Z,-0.72
2019-03-19T23:55:51.647Z,-0.72
2019-03-19T23:58:18.726Z,-0.72
